Time;durP1;ratioP1;P1;durP2;ratioP2;P2;SDS_P1;SDS_P2;PMS_P1;PMS_P2;Temp;Humidity;BMP_temperature;BMP_pressure;BME280_temperature;BME280_humidity;BME280_pressure;Samples;Min_cycle;Max_cycle;Signal;HPM_P1;HPM_P2
2021/12/29 00:05:12;;;;;;;35.40;27.45;;;;;;;;;;12501716;28;20475;-73
2021/12/29 00:11:14;;;;;;;35.30;26.45;;;;;;;;;;12500823;28;20419;-73
2021/12/29 00:17:15;;;;;;;28.47;21.57;;;;;;;;;;12501411;28;20045;-73
2021/12/29 00:23:17;;;;;;;25.95;19.58;;;;;;;;;;12501037;28;20041;-73
2021/12/29 00:29:19;;;;;;;25.95;19.85;;;;;;;;;;12500587;28;20038;-73
2021/12/29 00:35:38;;;;;;;26.80;19.25;;;;;;;;;;12500023;28;20390;-73
2021/12/29 00:41:55;;;;;;;23.98;17.98;;;;;;;;;;12501250;28;20052;-73
2021/12/29 00:47:57;;;;;;;24.02;18.00;;;;;;;;;;12498587;28;20483;-73
2021/12/29 00:53:59;;;;;;;23.58;17.15;;;;;;;;;;12498526;28;20382;-73
2021/12/29 01:00:01;;;;;;;16.40;12.98;;;;;;;;;;12497809;28;20052;-73
2021/12/29 01:06:03;;;;;;;22.92;17.33;;;;;;;;;;12499779;28;20033;-73
2021/12/29 01:12:05;;;;;;;23.43;17.10;;;;;;;;;;12498642;28;20054;-73
2021/12/29 01:18:07;;;;;;;18.33;14.05;;;;;;;;;;12496978;28;20506;-73
2021/12/29 01:24:09;;;;;;;28.42;21.75;;;;;;;;;;12498407;28;20041;-73
2021/12/29 01:30:11;;;;;;;27.15;20.70;;;;;;;;;;12496556;28;20037;-73
2021/12/29 01:36:13;;;;;;;23.83;18.10;;;;;;;;;;12497691;28;20401;-73
2021/12/29 01:42:14;;;;;;;22.73;17.60;;;;;;;;;;12496971;28;20037;-72
2021/12/29 01:48:16;;;;;;;28.77;20.55;;;;;;;;;;12497167;28;20044;-73
2021/12/29 01:54:25;;;;;;;24.73;16.92;;;;;;;;;;12496802;28;20033;-73
2021/12/29 02:00:29;;;;;;;25.80;20.13;;;;;;;;;;12495698;28;20045;-73
2021/12/29 02:06:30;;;;;;;28.35;19.63;;;;;;;;;;12495268;28;20371;-73
2021/12/29 02:12:32;;;;;;;20.48;15.38;;;;;;;;;;12496894;28;20479;-72
2021/12/29 02:18:37;;;;;;;29.17;21.30;;;;;;;;;;12495798;28;20046;-73
2021/12/29 02:24:42;;;;;;;28.40;19.55;;;;;;;;;;12494354;28;20069;-73
2021/12/29 02:30:46;;;;;;;26.98;18.17;;;;;;;;;;12493989;28;20064;-73
2021/12/29 02:36:47;;;;;;;33.80;22.85;;;;;;;;;;12493850;28;20029;-73
2021/12/29 02:42:49;;;;;;;28.60;20.10;;;;;;;;;;12494239;28;20052;-73
2021/12/29 02:48:56;;;;;;;29.45;20.98;;;;;;;;;;12495219;28;20029;-73
2021/12/29 02:54:58;;;;;;;22.05;16.70;;;;;;;;;;12494609;28;20045;-73
2021/12/29 03:01:01;;;;;;;25.08;18.70;;;;;;;;;;12492753;28;20113;-73
2021/12/29 03:07:02;;;;;;;22.48;16.58;;;;;;;;;;12493099;28;20034;-73
2021/12/29 03:13:04;;;;;;;26.50;19.58;;;;;;;;;;12502216;28;20056;-73
2021/12/29 03:19:07;;;;;;;37.88;29.40;;;;;;;;;;12503904;28;20041;-73
2021/12/29 03:25:09;;;;;;;21.08;16.77;;;;;;;;;;12485807;28;20033;-72
2021/12/29 03:31:14;;;;;;;21.63;17.73;;;;;;;;;;12502434;28;20033;-72
2021/12/29 03:37:16;;;;;;;22.15;17.80;;;;;;;;;;12503460;28;20033;-72
2021/12/29 03:43:18;;;;;;;15.20;12.68;;;;;;;;;;12504198;28;20041;-73
2021/12/29 03:49:20;;;;;;;27.65;22.70;;;;;;;;;;12501225;28;20057;-73
2021/12/29 03:55:21;;;;;;;23.23;19.43;;;;;;;;;;12502598;28;20021;-73
2021/12/29 04:01:25;;;;;;;28.50;23.25;;;;;;;;;;12501174;28;20375;-72
2021/12/29 04:07:27;;;;;;;27.05;22.92;;;;;;;;;;12502564;28;20402;-72
2021/12/29 04:13:29;;;;;;;38.55;31.40;;;;;;;;;;12484500;28;20411;-72
2021/12/29 04:19:40;;;;;;;24.90;20.17;;;;;;;;;;12501116;28;20041;-72
2021/12/29 04:25:46;;;;;;;21.13;18.25;;;;;;;;;;12501090;28;20041;-73
2021/12/29 04:31:47;;;;;;;22.52;18.58;;;;;;;;;;12500849;28;20051;-73
2021/12/29 04:37:49;;;;;;;24.20;20.15;;;;;;;;;;12500251;28;20391;-72
2021/12/29 04:43:51;;;;;;;22.87;18.27;;;;;;;;;;12499969;28;20494;-73
2021/12/29 04:49:53;;;;;;;20.58;17.50;;;;;;;;;;12501057;28;20044;-72
2021/12/29 04:55:55;;;;;;;23.35;19.73;;;;;;;;;;12499788;28;20049;-72
2021/12/29 05:01:56;;;;;;;21.42;17.20;;;;;;;;;;12499490;28;20033;-73
2021/12/29 05:14:21;;;;;;;;;;;;;;;;;;12500215;28;20064;-73
2021/12/29 05:20:23;;;;;;;20.40;17.08;;;;;;;;;;12498875;28;19917;-73
2021/12/29 05:26:25;;;;;;;20.20;16.15;;;;;;;;;;12497811;28;20033;-73
2021/12/29 05:32:30;;;;;;;17.35;14.82;;;;;;;;;;12497536;28;20045;-73
2021/12/29 05:38:31;;;;;;;17.77;14.43;;;;;;;;;;12498239;28;20045;-74
2021/12/29 05:44:33;;;;;;;24.75;19.52;;;;;;;;;;12497371;28;20041;-73
2021/12/29 05:50:35;;;;;;;29.17;22.13;;;;;;;;;;12497276;28;20033;-73
2021/12/29 05:56:37;;;;;;;29.58;21.50;;;;;;;;;;12496879;28;20033;-74
2021/12/29 06:02:39;;;;;;;39.93;24.50;;;;;;;;;;12496891;28;20042;-74
2021/12/29 06:08:40;;;;;;;32.55;21.83;;;;;;;;;;12496835;28;20029;-74
2021/12/29 06:14:44;;;;;;;30.08;21.50;;;;;;;;;;12496193;28;20053;-74
2021/12/29 06:20:46;;;;;;;44.50;29.05;;;;;;;;;;12477844;28;20041;-73
2021/12/29 06:26:47;;;;;;;29.83;20.38;;;;;;;;;;12495500;28;20061;-73
2021/12/29 06:32:49;;;;;;;45.05;30.08;;;;;;;;;;12493818;28;20030;-73
2021/12/29 06:38:51;;;;;;;35.35;24.67;;;;;;;;;;12493779;28;20502;-73
2021/12/29 06:44:53;;;;;;;27.38;18.77;;;;;;;;;;12492827;28;20037;-73
2021/12/29 06:50:55;;;;;;;40.03;27.27;;;;;;;;;;12493637;28;20033;-73
2021/12/29 06:56:56;;;;;;;28.85;20.80;;;;;;;;;;12505607;28;20037;-73
2021/12/29 07:02:58;;;;;;;33.97;24.02;;;;;;;;;;12542945;28;20044;-74
2021/12/29 07:09:00;;;;;;;26.25;19.33;;;;;;;;;;12541771;28;20474;-73
2021/12/29 07:15:01;;;;;;;50.88;28.60;;;;;;;;;;12543883;28;20063;-74
2021/12/29 07:21:03;;;;;;;25.48;17.75;;;;;;;;;;12541552;28;20056;-74
2021/12/29 07:27:05;;;;;;;24.63;17.95;;;;;;;;;;12542734;28;20040;-74
2021/12/29 07:33:08;;;;;;;36.40;25.80;;;;;;;;;;12542809;28;20040;-74
2021/12/29 07:39:11;;;;;;;47.95;23.25;;;;;;;;;;12542684;28;20056;-74
2021/12/29 07:45:13;;;;;;;22.65;17.02;;;;;;;;;;12542685;28;20409;-74
2021/12/29 07:51:16;;;;;;;80.65;27.95;;;;;;;;;;12542808;28;20033;-74
2021/12/29 07:57:18;;;;;;;23.65;17.80;;;;;;;;;;12530341;28;20029;-74
2021/12/29 08:03:20;;;;;;;37.42;19.17;;;;;;;;;;12551353;28;20544;-74
2021/12/29 08:09:22;;;;;;;24.98;17.27;;;;;;;;;;12550726;28;20029;-74
2021/12/29 08:15:23;;;;;;;19.55;15.90;;;;;;;;;;12549450;28;20033;-74
2021/12/29 08:21:25;;;;;;;22.00;18.65;;;;;;;;;;12549618;28;20052;-74
2021/12/29 08:27:27;;;;;;;29.20;20.70;;;;;;;;;;12549054;28;20044;-74
2021/12/29 08:33:28;;;;;;;11.95;10.70;;;;;;;;;;12548971;28;20050;-74
2021/12/29 08:39:30;;;;;;;19.30;17.15;;;;;;;;;;12548439;28;20398;-74
2021/12/29 08:45:33;;;;;;;23.48;18.45;;;;;;;;;;12549960;28;20486;-73
2021/12/29 08:51:35;;;;;;;20.17;16.85;;;;;;;;;;12549258;28;20103;-74
2021/12/29 08:57:36;;;;;;;19.15;16.38;;;;;;;;;;12548032;28;20402;-74
2021/12/29 09:03:38;;;;;;;14.98;13.45;;;;;;;;;;12547496;28;20049;-74
2021/12/29 09:09:40;;;;;;;21.35;18.17;;;;;;;;;;12545944;28;20076;-73
2021/12/29 09:15:42;;;;;;;19.50;17.35;;;;;;;;;;12548417;28;20139;-74
2021/12/29 09:21:44;;;;;;;18.80;16.77;;;;;;;;;;12547827;28;20045;-74
2021/12/29 09:27:49;;;;;;;20.73;18.52;;;;;;;;;;12546991;28;20083;-74
2021/12/29 09:33:51;;;;;;;25.75;20.67;;;;;;;;;;12546148;28;20505;-74
2021/12/29 09:39:53;;;;;;;20.23;17.63;;;;;;;;;;12547454;28;20056;-72
2021/12/29 09:45:55;;;;;;;30.85;24.75;;;;;;;;;;12546314;28;20041;-73
2021/12/29 09:51:57;;;;;;;21.47;17.80;;;;;;;;;;12545584;28;20056;-73
2021/12/29 09:57:59;;;;;;;17.67;15.07;;;;;;;;;;12546370;28;20041;-73
2021/12/29 10:04:01;;;;;;;25.13;20.50;;;;;;;;;;12545852;28;20045;-73
2021/12/29 10:10:04;;;;;;;19.17;17.10;;;;;;;;;;12545764;28;20294;-73
2021/12/29 10:16:08;;;;;;;18.73;16.45;;;;;;;;;;12545385;28;20482;-74
2021/12/29 10:22:19;;;;;;;23.75;19.02;;;;;;;;;;12544398;28;20033;-73
2021/12/29 10:28:26;;;;;;;25.17;21.70;;;;;;;;;;12543449;28;20029;-73
2021/12/29 10:34:29;;;;;;;24.58;20.75;;;;;;;;;;12544707;28;20044;-73
2021/12/29 10:40:38;;;;;;;16.33;14.52;;;;;;;;;;12545067;28;20486;-75
2021/12/29 10:46:40;;;;;;;27.52;23.20;;;;;;;;;;12543012;28;20037;-72
2021/12/29 10:52:43;;;;;;;27.50;22.40;;;;;;;;;;12538487;28;20025;-74
2021/12/29 10:58:44;;;;;;;;;;;;;;;;;;12543664;28;20037;-74
2021/12/29 11:04:53;;;;;;;20.40;18.17;;;;;;;;;;12542478;28;20278;-74
2021/12/29 11:11:00;;;;;;;12.23;9.63;;;;;;;;;;12542063;28;20049;-74
2021/12/29 11:17:05;;;;;;;19.20;17.08;;;;;;;;;;12541753;28;20033;-74
2021/12/29 11:23:09;;;;;;;18.20;15.73;;;;;;;;;;12541135;28;20044;-74
2021/12/29 11:29:12;;;;;;;19.95;16.00;;;;;;;;;;12543309;28;20104;-74
2021/12/29 11:35:16;;;;;;;20.70;16.77;;;;;;;;;;12552984;28;20047;-74
2021/12/29 11:41:19;;;;;;;33.42;25.95;;;;;;;;;;12553534;28;20052;-74
2021/12/29 11:47:21;;;;;;;22.45;19.55;;;;;;;;;;12550695;28;20029;-73
2021/12/29 11:53:43;;;;;;;32.45;26.00;;;;;;;;;;12550582;28;20033;-73
2021/12/29 11:59:45;;;;;;;25.65;21.42;;;;;;;;;;12550407;28;20041;-73
2021/12/29 12:05:48;;;;;;;23.08;19.63;;;;;;;;;;12551708;28;20375;-72
2021/12/29 12:11:50;;;;;;;29.10;24.77;;;;;;;;;;12549979;28;20053;-74
2021/12/29 12:17:55;;;;;;;28.17;21.60;;;;;;;;;;12550798;28;20513;-72
2021/12/29 12:24:11;;;;;;;22.10;18.77;;;;;;;;;;12549325;28;20048;-73
2021/12/29 12:30:17;;;;;;;22.55;18.67;;;;;;;;;;12550192;28;20055;-73
2021/12/29 12:36:40;;;;;;;21.20;18.15;;;;;;;;;;12534857;28;20040;-73
2021/12/29 12:42:42;;;;;;;21.88;17.00;;;;;;;;;;12546336;28;20045;-73
2021/12/29 12:48:43;;;;;;;19.95;16.60;;;;;;;;;;12548264;28;20491;-74
2021/12/29 12:54:47;;;;;;;18.55;14.95;;;;;;;;;;12547474;28;20035;-74
2021/12/29 13:00:48;;;;;;;17.67;14.40;;;;;;;;;;12530973;28;20048;-74
2021/12/29 13:07:06;;;;;;;17.90;14.45;;;;;;;;;;12532770;28;20037;-74
2021/12/29 13:13:15;;;;;;;20.15;16.38;;;;;;;;;;12547382;28;20049;-74
2021/12/29 13:19:16;;;;;;;14.25;11.77;;;;;;;;;;12548401;28;20045;-74
2021/12/29 13:25:32;;;;;;;20.00;15.52;;;;;;;;;;12546797;28;20032;-73
2021/12/29 13:31:34;;;;;;;16.90;13.38;;;;;;;;;;12547680;28;20041;-74
2021/12/29 13:37:37;;;;;;;15.45;11.80;;;;;;;;;;12547425;28;20032;-73
2021/12/29 13:43:43;;;;;;;14.02;11.43;;;;;;;;;;12546222;28;20041;-73
2021/12/29 13:49:45;;;;;;;19.95;14.80;;;;;;;;;;12529093;28;20029;-73
2021/12/29 13:55:47;;;;;;;16.67;13.18;;;;;;;;;;12545533;28;20033;-73
2021/12/29 14:01:56;;;;;;;19.38;15.93;;;;;;;;;;12545949;28;20075;-74
2021/12/29 14:07:58;;;;;;;21.40;14.82;;;;;;;;;;12537888;28;20041;-73
2021/12/29 14:14:01;;;;;;;18.33;13.35;;;;;;;;;;12539115;28;20060;-74
2021/12/29 14:20:08;;;;;;;16.38;12.45;;;;;;;;;;12543704;28;20037;-73
2021/12/29 14:26:11;;;;;;;17.98;12.65;;;;;;;;;;12527213;28;20033;-73
2021/12/29 14:32:12;;;;;;;14.93;10.75;;;;;;;;;;12544571;28;20033;-73
2021/12/29 14:38:14;;;;;;;23.63;17.50;;;;;;;;;;12544555;28;20467;-74
2021/12/29 14:44:17;;;;;;;17.58;13.57;;;;;;;;;;12544432;28;20044;-73
2021/12/29 14:50:18;;;;;;;;;;;;;;;;;;12543427;28;20517;-73
2021/12/29 14:56:24;;;;;;;19.88;14.82;;;;;;;;;;12543702;28;19916;-72
2021/12/29 15:02:26;;;;;;;19.55;15.18;;;;;;;;;;12544217;28;20041;-72
2021/12/29 15:08:28;;;;;;;18.42;13.52;;;;;;;;;;12551900;28;20033;-74
2021/12/29 15:14:34;;;;;;;17.60;13.73;;;;;;;;;;12554065;28;20060;-74
2021/12/29 15:20:37;;;;;;;20.02;15.00;;;;;;;;;;12552512;28;20433;-73
2021/12/29 15:26:38;;;;;;;;;;;;;;;;;;12554068;28;20418;-73
2021/12/29 15:32:40;;;;;;;18.85;12.98;;;;;;;;;;12553338;28;19916;-73
2021/12/29 15:38:42;;;;;;;14.60;11.85;;;;;;;;;;12551589;28;20051;-73
2021/12/29 15:44:43;;;;;;;24.65;17.45;;;;;;;;;;12552280;28;20044;-73
2021/12/29 15:50:46;;;;;;;24.10;17.25;;;;;;;;;;12551962;28;20029;-73
2021/12/29 15:56:47;;;;;;;21.20;16.50;;;;;;;;;;12552278;28;20043;-73
2021/12/29 16:02:51;;;;;;;24.60;16.67;;;;;;;;;;12549941;28;20516;-73
2021/12/29 16:08:52;;;;;;;21.50;15.60;;;;;;;;;;12551529;28;20033;-73
2021/12/29 16:14:54;;;;;;;24.38;17.67;;;;;;;;;;12550797;28;20576;-73
2021/12/29 16:20:56;;;;;;;24.35;16.98;;;;;;;;;;12549565;28;20052;-73
2021/12/29 16:26:57;;;;;;;21.70;15.88;;;;;;;;;;12548992;28;20036;-73
2021/12/29 16:33:00;;;;;;;23.38;17.90;;;;;;;;;;12548889;28;20036;-74
2021/12/29 16:39:03;;;;;;;29.48;21.02;;;;;;;;;;12550236;28;20040;-73
2021/12/29 16:45:06;;;;;;;28.73;20.10;;;;;;;;;;12550207;28;20037;-72
2021/12/29 16:51:07;;;;;;;17.45;12.93;;;;;;;;;;12549603;28;20033;-73
2021/12/29 16:57:09;;;;;;;37.72;31.10;;;;;;;;;;12548098;28;20048;-72
2021/12/29 17:03:11;;;;;;;31.00;24.50;;;;;;;;;;12548985;28;20045;-73
2021/12/29 17:09:13;;;;;;;35.53;27.80;;;;;;;;;;12549230;28;20210;-74
2021/12/29 17:15:15;;;;;;;34.00;26.30;;;;;;;;;;12549283;28;20052;-74
2021/12/29 17:21:17;;;;;;;31.73;25.13;;;;;;;;;;12546765;28;20402;-73
2021/12/29 17:27:20;;;;;;;33.38;26.60;;;;;;;;;;12546691;28;20036;-73
2021/12/29 17:33:21;;;;;;;27.98;24.40;;;;;;;;;;12546795;28;20025;-73
2021/12/29 17:39:23;;;;;;;29.58;25.85;;;;;;;;;;12547354;28;20036;-73
2021/12/29 17:45:25;;;;;;;28.70;24.85;;;;;;;;;;12545734;28;20040;-73
2021/12/29 17:51:27;;;;;;;26.65;22.08;;;;;;;;;;12545417;28;20039;-73
2021/12/29 17:57:28;;;;;;;25.88;23.10;;;;;;;;;;12544795;28;20040;-74
2021/12/29 18:03:30;;;;;;;31.13;26.70;;;;;;;;;;12545476;28;20048;-74
2021/12/29 18:09:32;;;;;;;32.90;28.15;;;;;;;;;;12546300;28;20482;-72
2021/12/29 18:15:34;;;;;;;30.48;27.13;;;;;;;;;;12545367;28;20049;-72
2021/12/29 18:21:35;;;;;;;30.05;25.60;;;;;;;;;;12543962;28;20048;-73
2021/12/29 18:27:38;;;;;;;35.50;30.40;;;;;;;;;;12545594;28;20096;-72
2021/12/29 18:33:40;;;;;;;34.17;29.92;;;;;;;;;;12543495;28;20033;-73
2021/12/29 18:39:42;;;;;;;31.00;26.45;;;;;;;;;;12544201;28;20051;-72
2021/12/29 18:45:44;;;;;;;26.42;23.60;;;;;;;;;;12544534;28;20044;-72
2021/12/29 18:51:46;;;;;;;27.27;23.97;;;;;;;;;;12544243;28;20029;-73
2021/12/29 18:57:48;;;;;;;30.33;26.37;;;;;;;;;;12542810;28;20044;-73
2021/12/29 19:03:49;;;;;;;29.58;26.25;;;;;;;;;;12543748;28;20045;-73
2021/12/29 19:09:51;;;;;;;28.67;24.08;;;;;;;;;;12543821;28;20049;-72
2021/12/29 19:15:53;;;;;;;33.28;28.40;;;;;;;;;;12525675;28;20045;-72
2021/12/29 19:21:55;;;;;;;31.23;27.90;;;;;;;;;;12543111;28;20037;-73
2021/12/29 19:27:58;;;;;;;33.45;29.92;;;;;;;;;;12541884;28;20036;-73
2021/12/29 19:33:59;;;;;;;31.48;26.40;;;;;;;;;;12541872;28;20041;-73
2021/12/29 19:40:01;;;;;;;28.30;24.77;;;;;;;;;;12542063;28;20052;-72
2021/12/29 19:46:03;;;;;;;26.17;23.38;;;;;;;;;;12541459;28;20064;-73
2021/12/29 19:52:05;;;;;;;40.20;35.90;;;;;;;;;;12544996;28;20033;-73
2021/12/29 19:58:07;;;;;;;33.10;29.55;;;;;;;;;;12550329;28;20486;-74
2021/12/29 20:04:09;;;;;;;27.27;24.40;;;;;;;;;;12551461;28;20056;-73
2021/12/29 20:10:12;;;;;;;42.83;35.88;;;;;;;;;;12550354;28;20056;-74
2021/12/29 20:16:15;;;;;;;29.55;25.70;;;;;;;;;;12550317;28;20040;-72
2021/12/29 20:22:17;;;;;;;36.53;32.08;;;;;;;;;;12549271;28;20041;-72
2021/12/29 20:28:19;;;;;;;36.33;31.90;;;;;;;;;;12549148;28;20025;-72
2021/12/29 20:34:20;;;;;;;36.17;32.22;;;;;;;;;;12550376;28;20025;-74
2021/12/29 20:40:22;;;;;;;39.72;34.70;;;;;;;;;;12548581;28;20041;-73
2021/12/29 20:46:24;;;;;;;37.78;33.72;;;;;;;;;;12548715;28;20041;-73
2021/12/29 20:52:26;;;;;;;42.50;36.17;;;;;;;;;;12549411;28;20036;-73
2021/12/29 20:58:27;;;;;;;42.63;35.80;;;;;;;;;;12548648;28;20112;-73
2021/12/29 21:04:30;;;;;;;37.75;33.60;;;;;;;;;;12547598;28;20394;-73
2021/12/29 21:10:31;;;;;;;43.73;38.00;;;;;;;;;;12548499;28;20048;-72
2021/12/29 21:16:33;;;;;;;35.17;30.63;;;;;;;;;;12546985;28;20037;-72
2021/12/29 21:22:36;;;;;;;33.13;27.83;;;;;;;;;;12546595;28;20529;-73
2021/12/29 21:28:38;;;;;;;37.80;30.35;;;;;;;;;;12546514;28;20036;-72
2021/12/29 21:34:40;;;;;;;44.72;39.50;;;;;;;;;;12547312;28;20478;-73
2021/12/29 21:40:42;;;;;;;34.30;30.58;;;;;;;;;;12547988;28;20494;-73
2021/12/29 21:46:44;;;;;;;36.05;32.17;;;;;;;;;;12529297;28;20394;-73
2021/12/29 21:52:46;;;;;;;39.85;34.15;;;;;;;;;;12546706;28;20412;-72
2021/12/29 21:58:48;;;;;;;38.58;34.20;;;;;;;;;;12546361;28;20028;-73
2021/12/29 22:04:50;;;;;;;40.13;33.33;;;;;;;;;;12544588;28;20051;-73
2021/12/29 22:10:52;;;;;;;32.08;28.63;;;;;;;;;;12545023;28;20056;-72
2021/12/29 22:16:54;;;;;;;36.78;30.58;;;;;;;;;;12545426;28;20036;-73
2021/12/29 22:23:01;;;;;;;35.55;31.17;;;;;;;;;;12545583;28;20052;-73
2021/12/29 22:29:03;;;;;;;35.70;30.67;;;;;;;;;;12545147;28;20031;-73
2021/12/29 22:35:05;;;;;;;30.40;27.10;;;;;;;;;;12527160;28;20044;-73
2021/12/29 22:41:10;;;;;;;27.47;24.63;;;;;;;;;;12544574;28;20048;-73
2021/12/29 22:47:12;;;;;;;34.80;29.02;;;;;;;;;;12543501;28;20500;-72
2021/12/29 22:53:14;;;;;;;34.20;29.88;;;;;;;;;;12544442;28;20037;-73
2021/12/29 22:59:16;;;;;;;39.40;34.97;;;;;;;;;;12544276;28;20040;-72
2021/12/29 23:05:18;;;;;;;34.70;30.08;;;;;;;;;;12543802;28;20056;-72
2021/12/29 23:11:21;;;;;;;35.17;30.77;;;;;;;;;;12543900;28;20044;-73
2021/12/29 23:17:23;;;;;;;32.10;28.70;;;;;;;;;;12525887;28;20033;-73
2021/12/29 23:23:25;;;;;;;30.10;26.88;;;;;;;;;;12543365;28;20041;-74
2021/12/29 23:29:27;;;;;;;30.20;26.88;;;;;;;;;;12551346;28;20455;-73
2021/12/29 23:35:29;;;;;;;31.53;28.20;;;;;;;;;;12551897;28;20397;-73
2021/12/29 23:41:30;;;;;;;33.05;29.42;;;;;;;;;;12553887;28;20049;-73
2021/12/29 23:47:32;;;;;;;31.45;28.13;;;;;;;;;;12551211;28;20493;-73
2021/12/29 23:53:34;;;;;;;34.45;30.50;;;;;;;;;;12551671;28;20044;-73
2021/12/29 23:59:36;;;;;;;28.87;24.93;;;;;;;;;;12550610;28;20040;-73
